Saturday, November 18, 2017, 10:06 PM EST
Back to Local

KTHV, York Airport

Location: Spring Grove, PA, United States Lat: 39.917
Local Time: 10:06 PM EST ( 3:06 GMT) Lon: -76.883
Time Zone: US/Eastern Elev: 478 ft

Show me the last for .
Show Decoded

2017-11-18 21:53 METAR KTHV 190253Z AUTO 21005KT 10SM CLR 13/08 A2939 RMK AO2 RAE19 SLP954 P0000
                 60001 T01280083 58028 =
2017-11-18 20:53 METAR KTHV 190153Z AUTO 00000KT 3SM -RA BR OVC100 05/05 A2943 RMK AO2 RAB28
                 SLP972 P0001 T00500050 =
2017-11-18 20:50 METAR KTHV 190150Z AUTO 00000KT 3SM -RA BR OVC100 05/05 A2943 RMK AO2 RAB28
                 P0001 =
2017-11-18 20:01 METAR KTHV 190101Z AUTO 00000KT 2 1/2SM BR SCT001 BKN120 05/05 A2946 RMK AO2
                 T00500050 =
2017-11-18 19:53 METAR KTHV 190053Z AUTO 30004KT 2 1/2SM BR SCT120 05/05 A2947 RMK AO2 RAE2358
                 SLP984 P0000 T00500050 =
2017-11-18 19:43 METAR KTHV 190043Z AUTO 29005KT 2 1/2SM BR FEW001 05/05 A2949 RMK AO2 RAE2358
                 P0000 T00500050 =
2017-11-18 19:33 METAR KTHV 190033Z AUTO 29006KT 3SM BR CLR 06/06 A2949 RMK AO2 RAE2358 P0000
                 T00560056 =
2017-11-18 19:17 METAR KTHV 190017Z AUTO 30003KT 2 1/2SM BR FEW100 FEW110 06/06 A2949 RMK AO2
                 RAE2358 P0000 T00560056 =
2017-11-18 18:53 METAR KTHV 182353Z AUTO 15003KT 3SM -RA BR FEW047 BKN100 OVC110 06/06 A2949 RMK
                 AO2 RAB40 SLP992 P0000 60049 T00610061 10061 20044 56042 =
2017-11-18 17:53 METAR KTHV 182253Z AUTO 14003KT 3SM BR SCT110 06/06 A2953 RMK AO2 SLP007
                 T00560056 =
2017-11-18 17:35 METAR KTHV 182235Z AUTO 12003KT 3SM BR BKN110 05/05 A2954 RMK AO2 T00500050 =
2017-11-18 17:23 METAR KTHV 182223Z AUTO 00000KT 2 1/2SM BR SCT110 05/05 A2955 RMK AO2 T00500050
                 =
2017-11-18 16:53 METAR KTHV 182153Z AUTO 00000KT 3SM BR BKN060 05/05 A2957 RMK AO2 RAE43 SLP019
                 P0001 T00500050 =
2017-11-18 16:43 METAR KTHV 182143Z AUTO 00000KT 3SM BR BKN060 OVC110 06/05 A2958 RMK AO2 RAE43
                 P0001 T00560050 =
2017-11-18 16:33 METAR KTHV 182133Z AUTO 00000KT 2 1/2SM -RA BR BKN060 OVC100 06/06 A2959 RMK AO2
                 P0001 T00560056 =
2017-11-18 16:17 METAR KTHV 182117Z AUTO 00000KT 3SM -RA BR FEW065 OVC100 05/05 A2959 RMK AO2
                 P0001 T00500050 =
2017-11-18 16:10 METAR KTHV 182110Z AUTO 00000KT 2 1/2SM -RA BR SCT060 OVC100 05/05 A2960 RMK AO2
                 P0001 T00500050 =
2017-11-18 15:53 METAR KTHV 182053Z AUTO 00000KT 3SM -RA BR OVC060 05/05 A2962 RMK AO2 SLP036
                 P0005 60048 T00500050 58019 =
2017-11-18 15:25 METAR KTHV 182025Z AUTO 07003KT 3SM -RA BR BKN060 OVC090 05/05 A2962 RMK AO2
                 PRESFR P0005 T00500050 =
2017-11-18 15:16 METAR KTHV 182016Z AUTO 03003KT 2 1/2SM -RA BR OVC060 05/05 A2963 RMK AO2 P0004
                 T00500050 =
2017-11-18 15:08 METAR KTHV 182008Z AUTO 00000KT 1 3/4SM -RA BR OVC065 05/05 A2964 RMK AO2 P0004
                 T00500050 =
2017-11-18 15:00 METAR KTHV 182000Z AUTO 00000KT 2SM RA BR BKN060 OVC080 05/05 A2964 RMK AO2
                 P0002 T00500050 =
2017-11-18 14:53 METAR KTHV 181953Z AUTO 00000KT 1 3/4SM -RA BR OVC060 05/05 A2964 RMK AO2 SLP042
                 P0027 T00500050 =
2017-11-18 14:00 METAR KTHV 181900Z AUTO 11003KT 1 3/4SM RA BR OVC050 04/04 A2968 RMK AO2 P0003
                 T00440044 =
2017-11-18 13:53 METAR KTHV 181853Z AUTO 00000KT 2 1/2SM RA BR OVC055 04/04 A2968 RMK AO2 SLP057
                 P0016 T00440044 =
2017-11-18 13:43 METAR KTHV 181843Z AUTO 10004KT 3SM RA BR OVC050 04/04 A2968 RMK AO2 P0013
                 T00440044 =
2017-11-18 13:34 METAR KTHV 181834Z AUTO 00000KT 2 1/2SM RA BR OVC055 04/04 A2969 RMK AO2 P0011
                 T00440044 =
2017-11-18 13:19 METAR KTHV 181819Z AUTO 11003KT 3SM -RA BR BKN055 OVC070 04/04 A2970 RMK AO2
                 P0007 T00440044 =
2017-11-18 13:14 METAR KTHV 181814Z AUTO 00000KT 2SM RA BR BKN055 OVC070 04/04 A2971 RMK AO2
                 P0007 T00440044 =
2017-11-18 13:01 METAR KTHV 181801Z AUTO 09003KT 2 1/2SM RA BR BKN055 OVC070 04/04 A2971 RMK AO2
                 P0002 T00440044 =
2017-11-18 12:53 METAR KTHV 181753Z AUTO 10003KT 1 3/4SM RA BR BKN060 OVC070 04/04 A2971 RMK AO2
                 SLP068 P0027 60058 T00440044 10061 20022 58044 =
2017-11-18 12:12 METAR KTHV 181712Z AUTO 14004KT 1 1/4SM +RA BR BKN050 OVC070 04/04 A2975 RMK AO2
                 P0009 T00440044 =
2017-11-18 12:03 METAR KTHV 181703Z AUTO 00000KT 2SM RA BR BKN065 OVC080 04/04 A2975 RMK AO2
                 P0004 T00440044 =
2017-11-18 11:53 METAR KTHV 181653Z AUTO 14005KT 2 1/2SM RA BR BKN065 BKN075 OVC090 04/04 A2975
                 RMK AO2 SLP080 P0020 T00440039 =
2017-11-18 11:25 METAR KTHV 181625Z AUTO 14005KT 2 1/2SM RA BR FEW050 BKN060 OVC090 04/04 A2977
                 RMK AO2 P0009 T00440039 =
2017-11-18 11:05 METAR KTHV 181605Z AUTO 13005KT 3SM RA BR OVC050 04/03 A2980 RMK AO2 P0003
                 T00390028 =
2017-11-18 11:00 METAR KTHV 181600Z AUTO 00000KT 2SM -RA BR OVC050 03/02 A2980 RMK AO2 P0002
                 T00330022 =
2017-11-18 10:53 METAR KTHV 181553Z AUTO 00000KT 2 1/2SM RA BR OVC055 03/02 A2981 RMK AO2 SLP102
                 P0011 T00330022 =
2017-11-18 10:45 METAR KTHV 181545Z AUTO 00000KT 2 1/2SM -RA BR OVC055 03/02 A2981 RMK AO2 P0008
                 T00330017 =
2017-11-18 10:32 METAR KTHV 181532Z AUTO 00000KT 4SM -RA BR OVC055 03/02 A2983 RMK AO2 P0006
                 T00330017 =
2017-11-18 10:24 METAR KTHV 181524Z AUTO 00000KT 2 1/2SM -RA BR OVC060 03/02 A2983 RMK AO2 P0005
                 T00330017 =
2017-11-18 09:53 METAR KTHV 181453Z AUTO 00000KT 9SM -RA OVC080 04/01 A2985 RMK AO2 RAB27 SLP113
                 P0000 60000 T00390011 58007 =
2017-11-18 08:53 METAR KTHV 181353Z AUTO VRB03KT 10SM OVC100 06/01 A2987 RMK AO2 SLP120 T00610006
                 =
2017-11-18 07:53 METAR KTHV 181253Z AUTO VRB05KT 10SM CLR 06/00 A2986 RMK AO2 SLP118 T00560000 =
2017-11-18 06:53 METAR KTHV 181153Z AUTO 16005KT 10SM CLR 02/00 A2987 RMK AO2 SLP121 T00170000
                 10017 21033 58028 =
2017-11-18 05:53 METAR KTHV 181053Z AUTO 00000KT 10SM CLR M01/M01 A2989 RMK AO2 SLP130 T10061011
                 =
2017-11-18 04:53 METAR KTHV 180953Z AUTO 00000KT 10SM CLR M01/M02 A2994 RMK AO2 SLP145 T10061017
                 =
2017-11-18 03:53 METAR KTHV 180853Z AUTO 14003KT 10SM CLR M02/M03 A2995 RMK AO2 SLP148 T10171033
                 56029 =
2017-11-18 02:53 METAR KTHV 180753Z AUTO 14003KT 10SM CLR M03/M04 A2998 RMK AO2 SLP156 T10281039
                 =
2017-11-18 01:53 METAR KTHV 180653Z AUTO 00000KT 10SM CLR M02/M03 A3000 RMK AO2 SLP164 T10171028
                 =
2017-11-18 00:53 METAR KTHV 180553Z AUTO 00000KT 10SM CLR M01/M02 A3004 RMK AO2 SLP177 T10111017
                 10000 21028 58016 =
2017-11-17 23:53 METAR KTHV 180453Z AUTO 29003KT 10SM CLR M01/M02 A3006 RMK AO2 SLP186 T10111017
                 400941028 =
2017-11-17 22:53 METAR KTHV 180353Z AUTO 00000KT 10SM CLR M01/M02 A3008 RMK AO2 SLP191 T10111017
                 =

Support USWX by starting your Amazon purchase here.